• Join FlightAware (Why Join?)
  • Login
  • US Flag 
04:49PM EDT


 

Airport Tracker/Info


-or-


 

Live Flight TrackerFlight Track Log ✈ AAY846 ✈ 04-May-2014 ✈ KPIE - KPIA

Flight Track Log - Related Links

Times and Time Zones

All times are in EDT time to prevent confusion due to time zone crossing. See the AAY846 flight status page for this flight to view local times or setup timezone preferences in your user account.

Time Position Orientation Groundspeed Altitude Reporting Facility
EDT Latitude Longitude Course Direction KTS MPH feet Rate Location/Type
08:47AM 27.9333 -82.7000 23° Northeast 133 153 1,100  Level Tampa TRACON
08:49AM 28.0017 -82.6669 23° Northeast 170 196 3,800 1,620 Climbing Jacksonville Center
08:50AM 28.0706 -82.6761 353° North 203 234 5,800 2,580 Climbing Jacksonville Center
08:51AM 28.1436 -82.6783 358° North 237 273 9,000 2,520 Climbing Jacksonville Center
08:52AM 28.2228 -82.6781 360° North 266 306 10,900 1,500 Climbing Jacksonville Center
08:53AM 28.3167 -82.6969 350° North 302 348 12,100 960 Climbing Jacksonville Center
08:54AM 28.4189 -82.7178 350° North 341 392 12,900 900 Climbing Jacksonville Center
08:55AM 28.5214 -82.7389 350° North 363 418 14,000 1,620 Climbing Jacksonville Center
08:56AM 28.6256 -82.7625 349° North 374 430 16,200 2,100 Climbing Jacksonville Center
08:57AM 28.7447 -82.7956 346° North 384 442 18,200 1,860 Climbing Jacksonville Center
08:58AM 28.8386 -82.8736 324° Northwest 399 459 20,000 1,680 Climbing Jacksonville Center
08:59AM 28.9347 -82.9567 323° Northwest 411 473 21,600 1,440 Climbing Jacksonville Center
09:00AM 29.0328 -83.0397 323° Northwest 433 498 22,900 1,080 Climbing Jacksonville Center
09:01AM 29.1264 -83.1231 322° Northwest 433 498 23,800 540 Climbing Jacksonville Center
09:02AM 29.2222 -83.2042 324° Northwest 438 504 24,000 420 Climbing Jacksonville Center
09:03AM 29.3222 -83.2831 325° Northwest 438 504 24,700 1,200 Climbing Jacksonville Center
09:04AM 29.4244 -83.3528 329° Northwest 433 498 26,400 1,500 Climbing Jacksonville Center
09:05AM 29.5283 -83.4225 330° Northwest 428 493 27,800 1,500 Climbing Jacksonville Center
09:06AM 29.6283 -83.4875 331° Northwest 428 493 29,500 1,500 Climbing Jacksonville Center
09:07AM 29.7344 -83.5503 333° Northwest 417 480 30,800 1,200 Climbing Jacksonville Center
09:08AM 29.8364 -83.6086 334° Northwest 412 474 32,000 600 Climbing Jacksonville Center
09:09AM 29.9261 -83.6594 334° Northwest 406 467 32,000 -60 Level Jacksonville Center
09:10AM 30.0281 -83.7156 335° Northwest 406 467 31,900  Descending Jacksonville Center
09:11AM 30.1297 -83.7739 334° Northwest 406 467 32,000  Climbing Jacksonville Center
09:12AM 30.2339 -83.8328 334° Northwest 406 467 32,000  Level Jacksonville Center
09:13AM 30.3336 -83.8914 333° Northwest 406 467 32,000  Level Jacksonville Center
09:14AM 30.4375 -83.9503 334° Northwest 406 467 32,000 -60 Level Jacksonville Center
09:15AM 30.5394 -84.0094 333° Northwest 406 467 31,900  Descending Jacksonville Center
09:16AM 30.6389 -84.0733 331° Northwest 401 461 32,000  Climbing Jacksonville Center
09:17AM 30.7428 -84.1375 332° Northwest 406 467 32,000  Level Jacksonville Center
09:18AM 30.8467 -84.1944 335° Northwest 406 467 32,000  Level Jacksonville Center
09:19AM 30.9483 -84.2564 332° Northwest 406 467 32,000  Level Jacksonville Center
09:20AM 31.0519 -84.3183 333° Northwest 406 467 32,000  Level Jacksonville Center
09:21AM 31.1556 -84.3783 334° Northwest 406 467 32,000  Level Jacksonville Center
09:23AM 31.3367 -84.4861 333° Northwest 417 480 32,000  Level Atlanta Center
09:24AM 31.4408 -84.5475 333° Northwest 417 480 32,000  Level Atlanta Center
09:25AM 31.5428 -84.6114 332° Northwest 412 474 32,000  Level Atlanta Center
09:26AM 31.6531 -84.6756 334° Northwest 412 474 32,000  Level Atlanta Center
09:27AM 31.7572 -84.7375 333° Northwest 412 474 32,000  Level Atlanta Center
09:28AM 31.8592 -84.8017 332° Northwest 412 474 32,000  Level Atlanta Center
09:29AM 31.9694 -84.8394 344° North 407 468 32,000  Level Atlanta Center
09:30AM 32.0797 -84.8772 344° North 407 468 32,000  Level Atlanta Center
09:31AM 32.1922 -84.9125 345° North 407 468 32,000  Level Atlanta Center
09:32AM 32.3028 -84.9456 346° North 412 474 32,000  Level Atlanta Center
09:33AM 32.4131 -84.9836 344° North 406 467 32,000  Level Atlanta Center
09:34AM 32.5233 -85.0192 345° North 406 467 32,000  Level Atlanta Center
09:35AM 32.6358 -85.0625 342° North 412 474 32,000  Level Atlanta Center
09:36AM 32.7439 -85.0983 344° North 418 481 32,000  Level Atlanta Center
09:37AM 32.8564 -85.1442 341° North 368 423 32,000  Level Atlanta Center
09:38AM 32.9625 -85.1728 347° North 387 445 32,000  Level Atlanta Center
09:39AM 33.0769 -85.2214 340° North 404 465 32,000  Level Atlanta Center
09:40AM 33.1808 -85.2700 339° North 409 471 32,000  Level Atlanta Center
09:41AM 33.2844 -85.3186 339° North 409 471 32,000  Level Atlanta Center
09:42AM 33.3800 -85.3647 338° Northwest 409 471 32,000  Level Atlanta Center
09:43AM 33.4861 -85.4111 340° North 409 471 32,000  Level Atlanta Center
09:44AM 33.5919 -85.4628 338° Northwest 409 471 32,000  Level Atlanta Center
09:45AM 33.6978 -85.5094 340° North 409 471 32,000  Level Atlanta Center
09:46AM 33.8036 -85.5589 339° North 409 471 32,000  Level Atlanta Center
09:47AM 33.9200 -85.6108 340° North 409 471 32,000  Level Atlanta Center
09:48AM 34.0256 -85.6631 338° Northwest 404 465 32,000  Level Atlanta Center
09:49AM 34.1336 -85.7103 340° North 409 471 32,000  Level Atlanta Center
09:50AM 34.2372 -85.7625 337° Northwest 409 471 32,000  Level Atlanta Center
09:51AM 34.3431 -85.8125 339° North 409 471 32,000  Level Atlanta Center
09:52AM 34.4467 -85.8575 340° North 393 452 32,000  Level Atlanta Center
09:53AM 34.5522 -85.9050 340° North 393 452 32,000  Level Atlanta Center
09:54AM 34.6461 -85.9553 336° Northwest 405 466 32,000  Level Memphis Center
09:55AM 34.7528 -86.0064 339° North 407 468 32,000  Level Memphis Center
09:56AM 34.8722 -86.0642 338° Northwest 408 470 32,000  Level Memphis Center
09:57AM 34.9806 -86.1175 338° Northwest 413 475 32,000  Level Memphis Center
09:58AM 35.0881 -86.1689 339° North 413 475 32,000  Level Memphis Center
09:59AM 35.1911 -86.2197 338° Northwest 414 476 32,000  Level Memphis Center
10:00AM 35.3178 -86.2800 339° North 414 476 32,000  Level Memphis Center
10:01AM 35.4247 -86.3347 337° Northwest 415 478 32,000  Level Memphis Center
10:02AM 35.5328 -86.3861 339° North 414 476 32,000  Level Memphis Center
10:03AM 35.6386 -86.4414 337° Northwest 413 475 32,000  Level Memphis Center
10:04AM 35.7464 -86.4931 339° North 413 475 32,000  Level Memphis Center
10:05AM 35.8550 -86.5450 339° North 413 475 32,000  Level Memphis Center
10:06AM 35.9614 -86.5978 338° Northwest 412 474 32,000  Level Memphis Center
10:07AM 36.0678 -86.6503 338° Northwest 411 473 32,000  Level Memphis Center
10:08AM 36.1892 -86.7142 337° Northwest 409 471 32,000  Level Memphis Center
10:09AM 36.2742 -86.7625 335° Northwest 407 468 32,000  Level Memphis Center
10:10AM 36.4014 -86.8394 334° Northwest 407 468 32,000  Level Memphis Center
10:11AM 36.4947 -86.8922 336° Northwest 408 470 32,000  Level Memphis Center
10:12AM 36.6131 -86.9636 334° Northwest 406 467 32,000  Level Memphis Center
10:13AM 36.7153 -87.0242 335° Northwest 405 466 32,000  Level Memphis Center
10:14AM 36.8169 -87.0850 334° Northwest 405 466 32,000  Level Memphis Center
10:15AM 36.9181 -87.1464 334° Northwest 404 465 32,000  Level Memphis Center
10:16AM 37.0206 -87.2069 335° Northwest 403 464 32,000  Level Memphis Center
10:17AM 37.1217 -87.2686 334° Northwest 403 464 32,000  Level Memphis Center
10:18AM 37.2394 -87.3392 335° Northwest 399 459 32,000  Level Memphis Center
10:19AM 37.3414 -87.3994 335° Northwest 399 459 32,000  Level Memphis Center
10:20AM 37.4264 -87.4511 334° Northwest 400 460 32,000  Level Indianapolis Center
10:21AM 37.5286 -87.5111 335° Northwest 400 460 32,000  Level Indianapolis Center
10:22AM 37.6311 -87.5700 336° Northwest 400 460 32,000  Level Indianapolis Center
10:23AM 37.7336 -87.6297 335° Northwest 400 460 32,000  Level Indianapolis Center
10:24AM 37.8344 -87.6886 335° Northwest 400 460 32,000  Level Indianapolis Center
10:25AM 37.9344 -87.7492 334° Northwest 399 459 32,000  Level Indianapolis Center
10:26AM 38.0558 -87.8181 336° Northwest 398 458 32,000  Level Indianapolis Center
10:28AM 38.1561 -87.8769 335° Northwest 396 456 32,000  Level Indianapolis Center
10:29AM 38.2564 -87.9389 334° Northwest 396 456 32,000  Level Indianapolis Center
10:30AM 38.3578 -88.0014 334° Northwest 397 457 32,000  Level Indianapolis Center
10:31AM 38.4578 -88.0603 335° Northwest 398 458 32,000  Level Indianapolis Center
10:32AM 38.5547 -88.1203 334° Northwest 389 448 32,000  Level Indianapolis Center
10:33AM 38.6531 -88.1803 335° Northwest 389 448 32,000  Level Indianapolis Center
10:34AM 38.7506 -88.2403 334° Northwest 388 447 32,000  Level Indianapolis Center
10:35AM 38.8706 -88.3128 335° Northwest 391 450 32,000 -120 Level Indianapolis Center
10:36AM 38.9681 -88.3739 334° Northwest 391 450 31,800 -600 Descending Indianapolis Center
10:37AM 39.0647 -88.4333 334° Northwest 388 447 30,800 -960 Descending Indianapolis Center
10:38AM 39.1628 -88.4950 334° Northwest 388 447 29,800 -900 Descending Indianapolis Center
10:39AM 39.2628 -88.5556 335° Northwest 391 450 29,000 -420 Descending Indianapolis Center
10:40AM 39.3714 -88.6236 334° Northwest 394 453 29,000  Level Kansas City Center
10:41AM 39.4756 -88.6883 334° Northwest 396 456 29,000  Level Kansas City Center
10:42AM 39.5744 -88.7486 335° Northwest 395 455 29,000 -300 Level Kansas City Center
10:43AM 39.6728 -88.8122 334° Northwest 395 455 28,400 -1,680 Descending Kansas City Center
10:44AM 39.7700 -88.8792 332° Northwest 396 456 25,700 -2,580 Descending Kansas City Center
10:45AM 39.8525 -88.9561 324° Northwest 371 427 23,100 -2,640 Descending Kansas City Center
10:46AM 39.9306 -89.0247 326° Northwest 349 402 20,300 -3,000 Descending Kansas City Center
10:47AM 40.0214 -89.1061 326° Northwest 335 386 17,100 -3,300 Descending Kansas City Center
10:48AM 40.0928 -89.1697 326° Northwest 317 365 13,500 -2,880 Descending Kansas City Center
10:49AM 40.1650 -89.2356 325° Northwest 316 364 10,900 -2,040 Descending Chicago Center
10:50AM 40.2408 -89.3033 326° Northwest 280 322 9,200 -1,860 Descending Chicago Center
10:51AM 40.2961 -89.3556 324° Northwest 253 291 7,200 -1,920 Descending Chicago Center
10:52AM 40.3533 -89.4075 325° Northwest 251 289 5,300 -1,680 Descending Chicago Center
10:53AM 40.4117 -89.4608 325° Northwest 252 290 3,800 -1,260 Descending Chicago Center
10:54AM 40.4683 -89.5122 325° Northwest 252 290 2,800 -720 Descending Chicago Center
10:55AM 40.5247 -89.5611 327° Northwest 248 285 2,400 -240 Descending Chicago Center
10:57AM 40.5789 -89.5992 332° Northwest 231 266 2,400 -360 Level Chicago Center
10:58AM 40.6253 -89.6319 332° Northwest 178 205 1,700 -780 Descending Chicago Center
10:59AM 40.6500 -89.6714 310° West 153 176 900 -540 Descending Chicago Center
11:00AM 40.6711 -89.7092 306° West 148 170 600 -300 Descending Chicago Center